createdAt,value
2019-02-06T00:02:20.057Z,96140.98
2019-02-06T00:04:52.799Z,96140.09
2019-02-06T00:07:25.550Z,96135.13
2019-02-06T00:09:58.360Z,96138.13
2019-02-06T00:12:31.306Z,96132.50
2019-02-06T00:15:05.044Z,96138.42
2019-02-06T00:17:37.943Z,96130.27
2019-02-06T00:20:10.637Z,96136.79
2019-02-06T00:22:43.426Z,96136.59
2019-02-06T00:25:16.267Z,96128.64
2019-02-06T00:27:48.887Z,96133.92
2019-02-06T00:30:23.792Z,96131.46
2019-02-06T00:32:56.585Z,96141.41
2019-02-06T00:35:29.269Z,96138.20
2019-02-06T00:38:05.152Z,96138.37
2019-02-06T00:40:36.366Z,96137.19
2019-02-06T00:43:09.093Z,96142.64
2019-02-06T00:45:41.760Z,96137.98
2019-02-06T00:48:14.720Z,96146.83
2019-02-06T00:50:47.496Z,96139.58
2019-02-06T00:53:20.213Z,96145.88
2019-02-06T00:55:53.075Z,96147.17
2019-02-06T00:58:26.231Z,96136.27
2019-02-06T01:00:59.006Z,96143.26
2019-02-06T01:03:31.707Z,96144.83
2019-02-06T01:06:04.442Z,96138.64
2019-02-06T01:08:37.153Z,96139.75
2019-02-06T01:11:09.972Z,96144.52
2019-02-06T01:13:42.808Z,96148.66
2019-02-06T01:16:15.448Z,96148.20
2019-02-06T01:18:48.243Z,96146.09
2019-02-06T01:21:24.492Z,96147.22
2019-02-06T01:23:57.248Z,96144.52
2019-02-06T01:26:30.026Z,96140.92
2019-02-06T01:29:03.037Z,96145.73
2019-02-06T01:31:36.015Z,96145.88
2019-02-06T01:34:09.205Z,96148.32
2019-02-06T01:36:41.921Z,96139.94
2019-02-06T01:39:14.771Z,96142.09
2019-02-06T01:41:47.427Z,96145.60
2019-02-06T01:44:20.146Z,96135.06
2019-02-06T01:46:53.242Z,96140.22
2019-02-06T01:49:25.925Z,96135.04
2019-02-06T01:51:58.726Z,96142.86
2019-02-06T01:54:31.572Z,96133.71
2019-02-06T01:57:04.463Z,96134.91
2019-02-06T01:59:37.142Z,96132.28
2019-02-06T02:02:09.827Z,96134.33
2019-02-06T02:04:42.559Z,96134.88
2019-02-06T02:07:15.348Z,96126.11
2019-02-06T02:09:48.211Z,96129.53
2019-02-06T02:12:20.994Z,96130.80
2019-02-06T02:14:53.712Z,96137.84
2019-02-06T02:17:26.495Z,96129.59
2019-02-06T02:19:59.306Z,96130.31
2019-02-06T02:22:32.639Z,96125.76
2019-02-06T02:25:06.355Z,96129.24
2019-02-06T02:27:39.156Z,96131.10
2019-02-06T02:30:16.590Z,96123.48
2019-02-06T02:32:49.298Z,96125.89
2019-02-06T02:35:22.183Z,96127.55
2019-02-06T02:37:54.906Z,96121.61
2019-02-06T02:40:27.596Z,96122.95
2019-02-06T02:43:00.291Z,96126.54
2019-02-06T02:45:33.362Z,96124.27
2019-02-06T02:48:06.050Z,96128.17
2019-02-06T02:50:38.740Z,96119.05
2019-02-06T02:53:11.430Z,96124.17
2019-02-06T02:55:44.317Z,96118.08
2019-02-06T02:58:20.181Z,96116.28
2019-02-06T03:01:17.683Z,96115.18
2019-02-06T03:04:15.300Z,96107.17
2019-02-06T03:06:48.063Z,96104.78
2019-02-06T03:09:20.913Z,96103.12
2019-02-06T03:11:53.597Z,96104.59
2019-02-06T03:14:26.242Z,96101.12
2019-02-06T03:16:59.013Z,96101.33
2019-02-06T03:19:31.820Z,96103.12
2019-02-06T03:22:05.337Z,96103.09
2019-02-06T03:24:38.582Z,96100.48
2019-02-06T03:27:11.228Z,96099.94
2019-02-06T03:29:43.929Z,96105.56
2019-02-06T03:32:16.624Z,96100.74
2019-02-06T03:34:49.372Z,96102.05
2019-02-06T03:37:22.050Z,96101.13
2019-02-06T03:39:54.773Z,96092.80
2019-02-06T03:42:27.600Z,96093.23
2019-02-06T03:51:03.651Z,96098.19
2019-02-06T03:53:36.369Z,96098.03
2019-02-06T03:56:09.077Z,96098.86
2019-02-06T03:58:41.797Z,96093.10
2019-02-06T04:01:14.517Z,96104.30
2019-02-06T04:03:47.628Z,96098.77
2019-02-06T04:06:20.323Z,96098.87
2019-02-06T04:08:53.912Z,96095.77
2019-02-06T04:11:26.609Z,96102.66
2019-02-06T04:13:59.458Z,96103.37
2019-02-06T04:16:32.185Z,96108.91
2019-02-06T04:19:04.938Z,96114.18
2019-02-06T04:21:37.672Z,96114.66
2019-02-06T04:24:10.396Z,96117.23
2019-02-06T04:26:43.062Z,96116.70
2019-02-06T04:29:15.868Z,96118.01
2019-02-06T04:31:48.644Z,96118.95
2019-02-06T04:34:21.432Z,96117.59
2019-02-06T04:37:05.797Z,96115.30
2019-02-06T04:39:28.806Z,96117.91
2019-02-06T04:42:01.716Z,96115.86
2019-02-06T04:44:34.474Z,96126.39
2019-02-06T04:47:07.123Z,96129.45
2019-02-06T04:49:39.915Z,96134.91
2019-02-06T04:52:12.612Z,96131.07
2019-02-06T04:54:45.320Z,96124.62
2019-02-06T04:57:18.169Z,96126.95
2019-02-06T04:59:50.874Z,96134.13
2019-02-06T05:02:23.652Z,96131.73
2019-02-06T05:04:56.374Z,96133.19
2019-02-06T05:07:29.402Z,96137.78
2019-02-06T05:10:02.158Z,96137.64
2019-02-06T05:12:34.977Z,96135.93
2019-02-06T05:15:08.389Z,96138.85
2019-02-06T05:17:41.405Z,96136.14
2019-02-06T05:20:26.420Z,96143.34
2019-02-06T05:22:59.423Z,96139.84
2019-02-06T05:25:32.590Z,96134.78
2019-02-06T05:28:05.679Z,96131.17
2019-02-06T05:30:38.413Z,96136.08
2019-02-06T05:33:11.139Z,96140.55
2019-02-06T05:35:44.190Z,96140.37
2019-02-06T05:38:16.926Z,96135.08
2019-02-06T05:40:49.587Z,96134.88
2019-02-06T05:43:22.365Z,96129.91
2019-02-06T05:45:55.250Z,96125.36
2019-02-06T05:48:28.070Z,96126.85
2019-02-06T05:51:00.830Z,96134.34
2019-02-06T05:53:33.546Z,96134.53
2019-02-06T05:56:06.815Z,96146.88
2019-02-06T05:58:39.516Z,96146.35
2019-02-06T06:01:12.387Z,96143.19
2019-02-06T06:03:45.110Z,96146.36
2019-02-06T06:06:17.870Z,96148.63
2019-02-06T06:08:50.599Z,96144.27
2019-02-06T06:11:23.311Z,96140.62
2019-02-06T06:13:56.358Z,96137.31
2019-02-06T06:16:29.075Z,96130.99
2019-02-06T06:19:01.751Z,96132.90
2019-02-06T06:21:34.620Z,96129.63
2019-02-06T06:24:09.115Z,96130.47
2019-02-06T06:26:41.919Z,96126.10
2019-02-06T06:29:14.825Z,96128.47
2019-02-06T06:31:47.589Z,96141.22
2019-02-06T06:34:20.293Z,96130.08
2019-02-06T06:36:52.982Z,96133.05
2019-02-06T06:39:27.383Z,96133.14
2019-02-06T06:42:00.226Z,96126.80
2019-02-06T06:44:32.926Z,96125.72
2019-02-06T06:47:05.711Z,96120.12
2019-02-06T06:49:38.520Z,96117.10
2019-02-06T06:52:11.196Z,96120.70
2019-02-06T06:54:44.001Z,96120.70
2019-02-06T06:57:16.640Z,96132.84
2019-02-06T06:59:49.391Z,96142.80
2019-02-06T07:02:22.424Z,96142.14
2019-02-06T07:04:55.104Z,96144.03
2019-02-06T07:07:27.846Z,96143.77
2019-02-06T07:10:00.591Z,96149.36
2019-02-06T07:12:33.402Z,96144.05
2019-02-06T07:15:11.050Z,96139.63
2019-02-06T07:17:43.745Z,96143.97
2019-02-06T07:20:18.500Z,96146.03
2019-02-06T07:22:51.589Z,96144.38
2019-02-06T07:25:24.663Z,96144.04
2019-02-06T07:27:57.558Z,96144.16
2019-02-06T07:30:35.675Z,96147.14
2019-02-06T07:33:08.187Z,96147.56
2019-02-06T07:35:40.898Z,96161.19
2019-02-06T07:38:23.939Z,96156.04
2019-02-06T07:40:48.202Z,96155.86
2019-02-06T07:43:20.963Z,96155.44
2019-02-06T07:45:53.683Z,96151.91
2019-02-06T07:48:26.778Z,96151.80
2019-02-06T07:51:01.378Z,96152.27
2019-02-06T07:53:34.075Z,96158.49
2019-02-06T07:56:06.855Z,96154.69
2019-02-06T07:58:39.579Z,96159.96
2019-02-06T08:01:12.373Z,96159.78
2019-02-06T08:03:45.065Z,96167.63
2019-02-06T08:06:17.698Z,96168.58
2019-02-06T08:08:50.496Z,96160.95
2019-02-06T08:11:23.156Z,96162.55
2019-02-06T08:13:55.871Z,96166.06
2019-02-06T08:16:28.595Z,96169.91
2019-02-06T08:19:01.283Z,96160.69
2019-02-06T08:21:34.071Z,96164.37
2019-02-06T08:24:07.510Z,96163.59
2019-02-06T08:26:40.191Z,96167.77
2019-02-06T08:29:12.917Z,96164.22
2019-02-06T08:31:45.863Z,96157.98
2019-02-06T08:34:18.478Z,96160.41
2019-02-06T08:36:51.092Z,96153.88
2019-02-06T08:39:24.278Z,96153.84
2019-02-06T08:41:56.918Z,96147.98
2019-02-06T08:44:29.907Z,96147.64
2019-02-06T08:47:03.028Z,96138.11
2019-02-06T08:49:35.700Z,96137.80
2019-02-06T08:52:08.274Z,96130.78
2019-02-06T08:54:41.112Z,96123.90
2019-02-06T08:57:13.767Z,96126.33
2019-02-06T08:59:46.786Z,96123.54
2019-02-06T09:02:19.492Z,96119.68
2019-02-06T09:04:55.857Z,96112.91
2019-02-06T09:07:26.507Z,96107.31
2019-02-06T09:10:02.485Z,96096.53
2019-02-06T09:12:35.201Z,96093.60
2019-02-06T09:15:08.368Z,96097.72
2019-02-06T09:17:40.931Z,96087.33
2019-02-06T09:20:18.093Z,96084.36
2019-02-06T09:22:51.209Z,96086.41
2019-02-06T09:25:25.839Z,96086.41
2019-02-06T09:27:58.981Z,96078.63
2019-02-06T09:30:35.999Z,96088.48
2019-02-06T09:33:08.958Z,96095.67
2019-02-06T09:35:41.611Z,96096.52
2019-02-06T09:38:14.187Z,96090.91
2019-02-06T09:40:49.357Z,96088.59
2019-02-06T09:43:21.456Z,96084.08
2019-02-06T09:45:57.071Z,96076.87
2019-02-06T09:48:29.616Z,96076.48
2019-02-06T09:51:02.324Z,96077.16
2019-02-06T09:53:34.972Z,96071.83
2019-02-06T09:56:07.913Z,96073.52
2019-02-06T09:58:40.706Z,96073.80
2019-02-06T10:01:13.598Z,96069.17
2019-02-06T10:03:46.987Z,96068.03
2019-02-06T10:06:19.831Z,96069.52
2019-02-06T10:08:53.440Z,96076.82
2019-02-06T10:11:26.168Z,96074.23
2019-02-06T10:13:58.913Z,96067.16
2019-02-06T10:16:31.619Z,96062.03
2019-02-06T10:19:04.554Z,96065.42
2019-02-06T10:21:37.334Z,96053.20
2019-02-06T10:24:10.208Z,96051.91
2019-02-06T10:26:42.940Z,96054.66
2019-02-06T10:29:15.695Z,96047.36
2019-02-06T10:31:48.425Z,96034.92
2019-02-06T10:34:21.146Z,96040.26
2019-02-06T10:36:53.990Z,96046.41
2019-02-06T10:39:34.274Z,96043.75
2019-02-06T10:42:01.089Z,96046.92
2019-02-06T10:44:34.071Z,96038.53
2019-02-06T10:47:06.859Z,96034.06
2019-02-06T10:49:39.787Z,96025.27
2019-02-06T10:52:12.506Z,96023.06
2019-02-06T10:54:45.356Z,96024.38
2019-02-06T10:57:18.430Z,96017.53
2019-02-06T10:59:51.145Z,96008.24
2019-02-06T11:02:23.891Z,96001.92
2019-02-06T11:04:56.788Z,95994.61
2019-02-06T11:07:29.606Z,95997.44
2019-02-06T11:10:02.370Z,95986.41
2019-02-06T11:12:35.166Z,95988.67
2019-02-06T11:15:09.770Z,95983.58
2019-02-06T11:17:42.594Z,95977.55
2019-02-06T11:20:18.569Z,95969.42
2019-02-06T11:22:51.273Z,95962.16
2019-02-06T11:25:24.212Z,95962.73
2019-02-06T11:27:56.979Z,95958.66
2019-02-06T11:30:30.472Z,95950.09
2019-02-06T11:33:03.238Z,95961.56
2019-02-06T11:35:36.155Z,95951.84
2019-02-06T11:38:12.568Z,95953.53
2019-02-06T11:40:45.605Z,95954.87
2019-02-06T11:43:18.312Z,95950.73
2019-02-06T11:45:51.104Z,95949.80
2019-02-06T11:48:24.029Z,95943.27
2019-02-06T11:50:57.342Z,95935.14
2019-02-06T11:53:30.146Z,95925.36
2019-02-06T11:56:02.860Z,95917.89
2019-02-06T11:58:35.661Z,95911.93
2019-02-06T12:01:33.259Z,95905.48
2019-02-06T12:04:06.089Z,95902.73
2019-02-06T12:06:38.924Z,95898.41
2019-02-06T12:09:15.402Z,95903.17
2019-02-06T12:11:48.162Z,95895.00
2019-02-06T12:14:21.313Z,95896.42
2019-02-06T12:16:54.286Z,95890.06
2019-02-06T12:19:29.729Z,95888.38
2019-02-06T12:22:02.420Z,95886.73
2019-02-06T12:24:35.128Z,95877.69
2019-02-06T12:27:07.795Z,95877.77
2019-02-06T12:29:40.639Z,95872.42
2019-02-06T12:32:13.502Z,95863.30
2019-02-06T12:34:46.271Z,95859.02
2019-02-06T12:37:19.111Z,95858.98
2019-02-06T12:39:51.937Z,95846.37
2019-02-06T12:42:24.703Z,95847.34
2019-02-06T12:44:59.065Z,95839.55
2019-02-06T12:47:31.799Z,95843.52
2019-02-06T12:50:05.209Z,95842.84
2019-02-06T12:52:38.205Z,95840.19
2019-02-06T12:55:16.034Z,95834.75
2019-02-06T12:57:48.688Z,95831.61
2019-02-06T13:00:25.094Z,95833.97
2019-02-06T13:03:00.010Z,95835.94
2019-02-06T13:05:33.186Z,95829.72
2019-02-06T13:08:07.954Z,95825.84
2019-02-06T13:10:40.663Z,95819.42
2019-02-06T13:13:13.720Z,95818.58
2019-02-06T13:15:47.414Z,95814.73
2019-02-06T13:18:24.055Z,95804.14
2019-02-06T13:20:55.433Z,95804.80
2019-02-06T13:23:28.117Z,95806.83
2019-02-06T13:26:01.335Z,95798.53
2019-02-06T13:28:34.057Z,95800.29
2019-02-06T13:31:06.813Z,95800.36
2019-02-06T13:33:39.518Z,95798.31
2019-02-06T13:36:13.174Z,95796.95
2019-02-06T13:38:45.890Z,95794.45
2019-02-06T13:41:18.604Z,95785.72
2019-02-06T13:43:51.348Z,95784.09
2019-02-06T13:46:24.046Z,95781.27
2019-02-06T13:48:57.034Z,95774.33
2019-02-06T13:51:29.799Z,95769.42
2019-02-06T13:54:02.577Z,95763.09
2019-02-06T13:56:35.295Z,95757.66
2019-02-06T13:59:07.976Z,95749.00
2019-02-06T14:01:41.195Z,95750.00
2019-02-06T14:04:14.147Z,95745.34
2019-02-06T14:06:46.871Z,95739.17
2019-02-06T14:09:25.649Z,95740.41
2019-02-06T14:11:56.383Z,95730.88
2019-02-06T14:14:29.133Z,95726.16
2019-02-06T14:17:01.686Z,95728.13
2019-02-06T14:19:34.435Z,95722.61
2019-02-06T14:22:09.855Z,95723.03
2019-02-06T14:25:26.451Z,95716.38
2019-02-06T14:28:48.428Z,95720.50
2019-02-06T14:32:06.570Z,95717.72
2019-02-06T14:35:19.753Z,95721.45
2019-02-06T14:38:28.088Z,95724.80
2019-02-06T14:41:47.315Z,95728.97
2019-02-06T14:45:06.884Z,95733.44
2019-02-06T14:48:24.692Z,95743.97
2019-02-06T14:51:30.708Z,95747.66
2019-02-06T14:55:30.881Z,95748.56
2019-02-06T14:59:39.546Z,95745.56
2019-02-06T15:03:40.169Z,95752.05
2019-02-06T15:06:41.989Z,95747.93
2019-02-06T15:10:30.143Z,95750.69
2019-02-06T15:13:47.610Z,95745.73
2019-02-06T15:17:08.332Z,95745.59
2019-02-06T15:20:04.462Z,95747.75
2019-02-06T15:23:32.336Z,95746.28
2019-02-06T15:26:50.522Z,95743.84
2019-02-06T15:30:06.439Z,95736.13
2019-02-06T15:33:46.539Z,95735.17
2019-02-06T15:37:06.647Z,95729.77
2019-02-06T15:40:44.517Z,95727.04
2019-02-06T15:44:11.146Z,95727.59
2019-02-06T15:47:29.000Z,95731.33
2019-02-06T15:51:08.208Z,95711.89
2019-02-06T15:54:38.743Z,95723.75
2019-02-06T15:58:31.992Z,95724.44
2019-02-06T16:01:55.338Z,95718.70
2019-02-06T16:05:36.885Z,95702.91
2019-02-06T16:09:09.768Z,95698.43
2019-02-06T16:12:51.244Z,95692.59
2019-02-06T16:16:24.001Z,95699.36
2019-02-06T16:20:05.642Z,95695.16
2019-02-06T16:23:49.409Z,95685.14
2019-02-06T16:27:23.043Z,95690.19
2019-02-06T16:30:41.461Z,95696.49
2019-02-06T16:34:11.829Z,95688.36
2019-02-06T16:37:25.159Z,95695.39
2019-02-06T16:41:10.513Z,95700.64
2019-02-06T16:44:31.310Z,95695.98
2019-02-06T16:47:59.474Z,95682.72
2019-02-06T16:50:49.735Z,95680.17
2019-02-06T16:54:31.627Z,95681.23
2019-02-06T16:57:50.078Z,95679.30
2019-02-06T17:01:16.811Z,95677.00
2019-02-06T17:04:24.334Z,95677.69
2019-02-06T17:07:20.130Z,95673.97
2019-02-06T17:10:58.514Z,95680.20
2019-02-06T17:14:26.070Z,95681.25
2019-02-06T17:18:09.637Z,95684.75
2019-02-06T17:21:43.392Z,95677.78
2019-02-06T17:25:10.448Z,95671.81
2019-02-06T17:28:39.837Z,95672.37
2019-02-06T17:31:47.545Z,95672.33
2019-02-06T17:35:04.019Z,95673.64
2019-02-06T17:38:17.006Z,95673.02
2019-02-06T17:41:25.032Z,95666.30
2019-02-06T17:44:55.210Z,95668.15
2019-02-06T17:48:26.918Z,95665.89
2019-02-06T17:51:43.443Z,95670.23
2019-02-06T17:55:18.639Z,95673.31
2019-02-06T17:57:54.764Z,95665.55
2019-02-06T18:00:46.279Z,95657.84
2019-02-06T18:03:19.389Z,95658.55
2019-02-06T18:05:53.024Z,95655.08
2019-02-06T18:08:25.748Z,95654.20
2019-02-06T18:10:58.870Z,95652.52
2019-02-06T18:13:31.958Z,95645.72
2019-02-06T18:16:04.898Z,95652.94
2019-02-06T18:18:37.594Z,95646.25
2019-02-06T18:21:11.118Z,95651.05
2019-02-06T18:23:43.871Z,95651.88
2019-02-06T18:26:16.722Z,95655.50
2019-02-06T18:28:49.636Z,95646.94
2019-02-06T18:31:22.433Z,95649.48
2019-02-06T18:33:55.267Z,95646.70
2019-02-06T18:36:28.121Z,95636.97
2019-02-06T18:39:01.446Z,95649.68
2019-02-06T18:41:34.162Z,95653.80
2019-02-06T18:44:07.329Z,95652.44
2019-02-06T18:46:39.957Z,95651.68
2019-02-06T18:49:12.681Z,95649.33
2019-02-06T18:51:45.628Z,95653.55
2019-02-06T18:54:18.430Z,95644.90
2019-02-06T18:56:51.800Z,95645.87
2019-02-06T18:59:24.941Z,95637.58
2019-02-06T19:01:57.703Z,95632.61
2019-02-06T19:04:31.064Z,95627.50
2019-02-06T19:07:03.952Z,95627.19
2019-02-06T19:09:36.859Z,95632.77
2019-02-06T19:12:09.759Z,95620.67
2019-02-06T19:14:43.544Z,95618.39
2019-02-06T19:17:16.326Z,95623.77
2019-02-06T19:19:49.050Z,95619.77
2019-02-06T19:22:21.848Z,95615.07
2019-02-06T19:24:54.516Z,95613.33
2019-02-06T19:27:27.394Z,95611.69
2019-02-06T19:30:00.208Z,95612.19
2019-02-06T19:32:34.139Z,95613.44
2019-02-06T19:35:08.868Z,95608.78
2019-02-06T19:37:41.605Z,95614.42
2019-02-06T19:40:14.640Z,95601.01
2019-02-06T19:42:47.496Z,95603.45
2019-02-06T19:45:20.323Z,95608.60
2019-02-06T19:47:53.163Z,95607.17
2019-02-06T19:50:32.339Z,95616.70
2019-02-06T19:53:05.349Z,95621.24
2019-02-06T19:55:38.034Z,95615.84
2019-02-06T19:58:10.925Z,95618.67
2019-02-06T20:00:43.793Z,95613.95
2019-02-06T20:03:16.664Z,95605.23
2019-02-06T20:05:49.471Z,95611.58
2019-02-06T20:08:22.154Z,95607.98
2019-02-06T20:10:54.987Z,95603.98
2019-02-06T20:13:27.780Z,95610.30
2019-02-06T20:16:00.997Z,95605.31
2019-02-06T20:18:33.876Z,95602.25
2019-02-06T20:21:06.762Z,95592.84
2019-02-06T20:23:39.473Z,95594.82
2019-02-06T20:26:12.333Z,95586.27
2019-02-06T20:28:45.438Z,95582.81
2019-02-06T20:31:18.125Z,95579.20
2019-02-06T20:33:50.899Z,95573.48
2019-02-06T20:36:23.580Z,95578.48
2019-02-06T20:38:56.496Z,95577.22
2019-02-06T20:41:34.134Z,95567.06
2019-02-06T20:44:05.416Z,95578.50
2019-02-06T20:46:38.224Z,95562.45
2019-02-06T20:49:11.111Z,95555.28
2019-02-06T20:51:43.904Z,95557.91
2019-02-06T20:54:16.744Z,95557.63
2019-02-06T20:56:49.578Z,95561.09
2019-02-06T20:59:22.441Z,95553.63
2019-02-06T21:01:55.079Z,95554.97
2019-02-06T21:04:27.799Z,95559.52
2019-02-06T21:07:00.666Z,95563.77
2019-02-06T21:09:33.294Z,95564.52
2019-02-06T21:12:06.525Z,95565.88
2019-02-06T21:14:39.285Z,95562.88
2019-02-06T21:17:12.067Z,95562.30
2019-02-06T21:19:44.702Z,95556.99
2019-02-06T21:22:17.409Z,95566.68
2019-02-06T21:24:50.178Z,95561.76
2019-02-06T21:27:22.868Z,95559.41
2019-02-06T21:29:56.062Z,95568.16
2019-02-06T21:32:28.976Z,95558.23
2019-02-06T21:35:01.623Z,95562.03
2019-02-06T21:37:34.378Z,95556.61
2019-02-06T21:40:12.106Z,95552.64
2019-02-06T21:42:44.834Z,95556.53
2019-02-06T21:45:18.214Z,95548.78
2019-02-06T21:47:50.853Z,95547.87
2019-02-06T21:50:24.198Z,95547.34
2019-02-06T21:52:57.623Z,95541.04
2019-02-06T21:55:30.302Z,95527.43
2019-02-06T21:58:03.016Z,95536.31
2019-02-06T22:00:39.581Z,95524.63
2019-02-06T22:03:12.428Z,95526.53
2019-02-06T22:05:45.153Z,95526.23
2019-02-06T22:08:17.963Z,95525.91
2019-02-06T22:10:50.778Z,95528.84
2019-02-06T22:13:23.136Z,95522.83
2019-02-06T22:15:56.394Z,95526.70
2019-02-06T22:18:29.012Z,95524.51
2019-02-06T22:21:01.665Z,95523.13
2019-02-06T22:23:34.715Z,95520.35
2019-02-06T22:26:07.429Z,95525.05
2019-02-06T22:28:40.129Z,95515.78
2019-02-06T22:31:12.797Z,95516.87
2019-02-06T22:33:45.527Z,95513.61
2019-02-06T22:36:18.250Z,95506.50
2019-02-06T22:38:50.973Z,95511.02
2019-02-06T22:41:23.790Z,95515.83
2019-02-06T22:44:06.231Z,95511.37
2019-02-06T22:46:32.057Z,95510.50
2019-02-06T22:49:04.918Z,95508.11
2019-02-06T22:51:37.790Z,95510.81
2019-02-06T22:54:10.599Z,95513.55
2019-02-06T22:56:43.218Z,95506.13
2019-02-06T22:59:16.009Z,95509.63
2019-02-06T23:01:56.403Z,95506.63
2019-02-06T23:04:29.102Z,95514.88
2019-02-06T23:07:01.828Z,95511.99
2019-02-06T23:09:34.467Z,95516.78
2019-02-06T23:12:07.902Z,95515.16
2019-02-06T23:14:40.622Z,95505.30
2019-02-06T23:17:13.432Z,95499.19
2019-02-06T23:19:46.071Z,95497.86
2019-02-06T23:22:18.834Z,95498.41
2019-02-06T23:24:51.821Z,95489.54
2019-02-06T23:27:24.570Z,95489.45
2019-02-06T23:29:57.358Z,95484.53
2019-02-06T23:32:30.067Z,95488.16
2019-02-06T23:35:02.863Z,95493.60
2019-02-06T23:37:35.501Z,95484.11
2019-02-06T23:40:09.952Z,95492.11
2019-02-06T23:42:42.936Z,95485.22
2019-02-06T23:45:16.001Z,95492.34
2019-02-06T23:47:49.218Z,95486.89
2019-02-06T23:50:22.143Z,95483.91
2019-02-06T23:52:54.858Z,95487.73
2019-02-06T23:55:27.559Z,95478.12
2019-02-06T23:58:00.411Z,95477.38
